sensor_id;sensor_type;location;lat;lon;timestamp;pressure;altitude;pressure_sealevel;temperature;humidity
2685;BME280;1352;48.446;9.156;2022-10-20T00:00:32;95586.38;;;14.78;100.00
2685;BME280;1352;48.446;9.156;2022-10-20T00:02:59;95580.69;;;14.91;100.00
2685;BME280;1352;48.446;9.156;2022-10-20T00:05:26;95572.28;;;14.87;100.00
2685;BME280;1352;48.446;9.156;2022-10-20T00:07:53;95574.13;;;14.95;100.00
2685;BME280;1352;48.446;9.156;2022-10-20T00:10:21;95578.00;;;14.82;100.00
2685;BME280;1352;48.446;9.156;2022-10-20T00:12:48;95573.41;;;14.84;100.00
2685;BME280;1352;48.446;9.156;2022-10-20T00:15:15;95577.41;;;14.88;100.00
2685;BME280;1352;48.446;9.156;2022-10-20T00:17:42;95582.31;;;14.92;100.00
2685;BME280;1352;48.446;9.156;2022-10-20T00:20:11;95580.69;;;14.91;100.00
2685;BME280;1352;48.446;9.156;2022-10-20T00:22:38;95586.31;;;14.96;100.00
2685;BME280;1352;48.446;9.156;2022-10-20T00:25:05;95583.97;;;14.93;100.00
2685;BME280;1352;48.446;9.156;2022-10-20T00:27:34;95582.31;;;14.92;100.00
2685;BME280;1352;48.446;9.156;2022-10-20T00:30:01;95571.38;;;14.96;100.00
2685;BME280;1352;48.446;9.156;2022-10-20T00:32:28;95573.84;;;14.98;100.00
2685;BME280;1352;48.446;9.156;2022-10-20T00:34:55;95565.13;;;14.97;100.00
2685;BME280;1352;48.446;9.156;2022-10-20T00:37:22;95575.56;;;14.81;100.00
2685;BME280;1352;48.446;9.156;2022-10-20T00:39:49;95571.94;;;14.56;100.00
2685;BME280;1352;48.446;9.156;2022-10-20T00:42:19;95568.03;;;14.60;100.00
2685;BME280;1352;48.446;9.156;2022-10-20T00:44:51;95568.63;;;14.54;100.00
2685;BME280;1352;48.446;9.156;2022-10-20T00:47:26;95570.28;;;14.55;100.00
2685;BME280;1352;48.446;9.156;2022-10-20T00:50:02;95561.59;;;14.37;100.00
2685;BME280;1352;48.446;9.156;2022-10-20T00:52:30;95562.19;;;14.48;100.00
2685;BME280;1352;48.446;9.156;2022-10-20T00:54:58;95559.53;;;14.66;100.00
2685;BME280;1352;48.446;9.156;2022-10-20T00:57:26;95550.97;;;14.64;100.00
2685;BME280;1352;48.446;9.156;2022-10-20T00:59:55;95542.38;;;14.54;100.00
2685;BME280;1352;48.446;9.156;2022-10-20T01:02:22;95535.84;;;14.58;100.00
2685;BME280;1352;48.446;9.156;2022-10-20T01:04:49;95540.16;;;14.67;100.00
2685;BME280;1352;48.446;9.156;2022-10-20T01:07:16;95541.19;;;14.74;100.00
2685;BME280;1352;48.446;9.156;2022-10-20T01:09:43;95537.72;;;14.74;100.00
2685;BME280;1352;48.446;9.156;2022-10-20T01:12:19;95540.16;;;14.67;100.00
2685;BME280;1352;48.446;9.156;2022-10-20T01:14:56;95534.56;;;14.62;100.00
2685;BME280;1352;48.446;9.156;2022-10-20T01:17:36;95542.66;;;14.69;100.00
2685;BME280;1352;48.446;9.156;2022-10-20T01:20:43;95531.88;;;14.54;100.00
2685;BME280;1352;48.446;9.156;2022-10-20T01:23:31;95528.00;;;14.66;100.00
2685;BME280;1352;48.446;9.156;2022-10-20T01:26:21;95522.13;;;14.72;100.00
2685;BME280;1352;48.446;9.156;2022-10-20T01:28:56;95518.75;;;14.80;100.00
2685;BME280;1352;48.446;9.156;2022-10-20T01:31:29;95519.31;;;14.66;100.00
2685;BME280;1352;48.446;9.156;2022-10-20T01:34:02;95512.66;;;14.79;100.00
2685;BME280;1352;48.446;9.156;2022-10-20T01:36:36;95515.78;;;14.83;100.00
2685;BME280;1352;48.446;9.156;2022-10-20T01:39:13;95522.00;;;14.82;100.00
2685;BME280;1352;48.446;9.156;2022-10-20T01:41:46;95516.59;;;14.83;100.00
2685;BME280;1352;48.446;9.156;2022-10-20T01:44:21;95511.34;;;14.83;100.00
2685;BME280;1352;48.446;9.156;2022-10-20T01:46:50;95512.69;;;14.87;100.00
2685;BME280;1352;48.446;9.156;2022-10-20T01:49:18;95506.13;;;14.92;100.00
2685;BME280;1352;48.446;9.156;2022-10-20T01:51:45;95498.94;;;15.02;100.00
2685;BME280;1352;48.446;9.156;2022-10-20T01:54:20;95488.94;;;14.97;100.00
2685;BME280;1352;48.446;9.156;2022-10-20T01:56:58;95483.53;;;14.99;100.00
2685;BME280;1352;48.446;9.156;2022-10-20T01:59:41;95477.34;;;14.82;100.00
2685;BME280;1352;48.446;9.156;2022-10-20T02:02:30;95476.56;;;14.81;100.00
2685;BME280;1352;48.446;9.156;2022-10-20T02:05:16;95483.13;;;14.51;100.00
2685;BME280;1352;48.446;9.156;2022-10-20T02:07:44;95476.72;;;14.80;100.00
2685;BME280;1352;48.446;9.156;2022-10-20T02:10:15;95474.28;;;14.86;100.00
2685;BME280;1352;48.446;9.156;2022-10-20T02:12:47;95466.06;;;14.56;100.00
2685;BME280;1352;48.446;9.156;2022-10-20T02:15:22;95475.19;;;14.69;100.00
2685;BME280;1352;48.446;9.156;2022-10-20T02:17:53;95474.00;;;14.64;100.00
2685;BME280;1352;48.446;9.156;2022-10-20T02:20:22;95474.69;;;14.74;100.00
2685;BME280;1352;48.446;9.156;2022-10-20T02:22:49;95470.91;;;14.68;100.00
2685;BME280;1352;48.446;9.156;2022-10-20T02:25:17;95466.19;;;14.72;100.00
2685;BME280;1352;48.446;9.156;2022-10-20T02:27:46;95462.91;;;14.78;100.00
2685;BME280;1352;48.446;9.156;2022-10-20T02:30:15;95461.34;;;14.59;100.00
2685;BME280;1352;48.446;9.156;2022-10-20T02:32:47;95459.69;;;14.58;100.00
2685;BME280;1352;48.446;9.156;2022-10-20T02:35:18;95447.72;;;14.64;100.00
2685;BME280;1352;48.446;9.156;2022-10-20T02:37:46;95453.22;;;14.44;100.00
2685;BME280;1352;48.446;9.156;2022-10-20T02:40:13;95441.09;;;14.43;100.00
2685;BME280;1352;48.446;9.156;2022-10-20T02:42:40;95441.41;;;14.40;100.00
2685;BME280;1352;48.446;9.156;2022-10-20T02:45:08;95447.50;;;14.49;100.00
2685;BME280;1352;48.446;9.156;2022-10-20T02:47:35;95443.13;;;14.58;100.00
2685;BME280;1352;48.446;9.156;2022-10-20T02:50:05;95445.75;;;14.32;100.00
2685;BME280;1352;48.446;9.156;2022-10-20T02:52:33;95444.22;;;14.47;100.00
2685;BME280;1352;48.446;9.156;2022-10-20T02:55:01;95446.53;;;14.50;100.00
2685;BME280;1352;48.446;9.156;2022-10-20T02:57:29;95441.97;;;14.52;100.00
2685;BME280;1352;48.446;9.156;2022-10-20T02:59:56;95447.66;;;14.47;100.00
2685;BME280;1352;48.446;9.156;2022-10-20T03:02:25;95445.13;;;14.38;100.00
2685;BME280;1352;48.446;9.156;2022-10-20T03:04:52;95440.91;;;14.45;100.00
2685;BME280;1352;48.446;9.156;2022-10-20T03:07:21;95447.50;;;14.49;100.00
2685;BME280;1352;48.446;9.156;2022-10-20T03:09:50;95436.91;;;14.33;100.00
2685;BME280;1352;48.446;9.156;2022-10-20T03:12:17;95447.69;;;14.30;100.00
2685;BME280;1352;48.446;9.156;2022-10-20T03:14:44;95451.44;;;14.27;100.00
2685;BME280;1352;48.446;9.156;2022-10-20T03:17:11;95447.81;;;14.20;100.00
2685;BME280;1352;48.446;9.156;2022-10-20T03:19:38;95445.38;;;14.27;100.00
2685;BME280;1352;48.446;9.156;2022-10-20T03:22:05;95445.19;;;14.20;100.00
2685;BME280;1352;48.446;9.156;2022-10-20T03:24:37;95447.34;;;14.25;100.00
2685;BME280;1352;48.446;9.156;2022-10-20T03:27:04;95455.00;;;14.18;100.00
2685;BME280;1352;48.446;9.156;2022-10-20T03:29:31;95452.41;;;14.26;100.00
2685;BME280;1352;48.446;9.156;2022-10-20T03:31:58;95452.13;;;14.29;100.00
2685;BME280;1352;48.446;9.156;2022-10-20T03:34:25;95449.84;;;14.34;100.00
2685;BME280;1352;48.446;9.156;2022-10-20T03:36:52;95449.97;;;14.25;100.00
2685;BME280;1352;48.446;9.156;2022-10-20T03:39:19;95441.78;;;14.28;100.00
2685;BME280;1352;48.446;9.156;2022-10-20T03:41:47;95440.13;;;14.27;100.00
2685;BME280;1352;48.446;9.156;2022-10-20T03:44:14;95433.91;;;14.28;100.00
2685;BME280;1352;48.446;9.156;2022-10-20T03:46:41;95435.66;;;14.19;100.00
2685;BME280;1352;48.446;9.156;2022-10-20T03:49:08;95428.25;;;14.14;100.00
2685;BME280;1352;48.446;9.156;2022-10-20T03:51:35;95428.09;;;14.16;100.00
2685;BME280;1352;48.446;9.156;2022-10-20T03:54:02;95430.09;;;14.22;100.00
2685;BME280;1352;48.446;9.156;2022-10-20T03:56:30;95426.75;;;14.12;100.00
2685;BME280;1352;48.446;9.156;2022-10-20T03:58:58;95417.97;;;13.95;100.00
2685;BME280;1352;48.446;9.156;2022-10-20T04:01:30;95420.00;;;13.58;100.00
2685;BME280;1352;48.446;9.156;2022-10-20T04:03:57;95410.16;;;13.60;100.00
2685;BME280;1352;48.446;9.156;2022-10-20T04:06:24;95407.19;;;13.81;100.00
2685;BME280;1352;48.446;9.156;2022-10-20T04:08:51;95406.03;;;13.75;100.00
2685;BME280;1352;48.446;9.156;2022-10-20T04:11:18;95417.00;;;13.96;100.00
2685;BME280;1352;48.446;9.156;2022-10-20T04:13:45;95410.31;;;14.02;100.00
2685;BME280;1352;48.446;9.156;2022-10-20T04:16:16;95407.00;;;14.00;100.00
2685;BME280;1352;48.446;9.156;2022-10-20T04:18:43;95406.84;;;14.01;100.00
2685;BME280;1352;48.446;9.156;2022-10-20T04:21:10;95407.16;;;13.98;100.00
2685;BME280;1352;48.446;9.156;2022-10-20T04:23:37;95400.53;;;13.86;100.00
2685;BME280;1352;48.446;9.156;2022-10-20T04:26:08;95408.66;;;13.75;100.00
2685;BME280;1352;48.446;9.156;2022-10-20T04:28:35;95392.66;;;13.86;100.00
2685;BME280;1352;48.446;9.156;2022-10-20T04:31:03;95398.63;;;13.96;100.00
2685;BME280;1352;48.446;9.156;2022-10-20T04:33:31;95401.59;;;14.01;100.00
2685;BME280;1352;48.446;9.156;2022-10-20T04:35:59;95409.81;;;14.06;100.00
2685;BME280;1352;48.446;9.156;2022-10-20T04:38:28;95409.19;;;14.04;100.00
2685;BME280;1352;48.446;9.156;2022-10-20T04:40:55;95400.34;;;13.88;100.00
2685;BME280;1352;48.446;9.156;2022-10-20T04:43:23;95399.97;;;14.00;100.00
2685;BME280;1352;48.446;9.156;2022-10-20T04:45:50;95402.44;;;14.02;100.00
2685;BME280;1352;48.446;9.156;2022-10-20T04:48:21;95400.09;;;13.99;100.00
2685;BME280;1352;48.446;9.156;2022-10-20T04:50:58;95401.66;;;13.84;100.00
2685;BME280;1352;48.446;9.156;2022-10-20T04:53:25;95397.19;;;13.76;100.00
2685;BME280;1352;48.446;9.156;2022-10-20T04:55:53;95391.13;;;13.75;100.00
2685;BME280;1352;48.446;9.156;2022-10-20T04:58:20;95395.81;;;13.72;100.00
2685;BME280;1352;48.446;9.156;2022-10-20T05:00:47;95385.63;;;13.69;100.00
2685;BME280;1352;48.446;9.156;2022-10-20T05:03:14;95387.34;;;13.78;100.00
2685;BME280;1352;48.446;9.156;2022-10-20T05:05:43;95378.00;;;13.75;100.00
2685;BME280;1352;48.446;9.156;2022-10-20T05:08:12;95374.56;;;13.75;100.00
2685;BME280;1352;48.446;9.156;2022-10-20T05:10:41;95370.69;;;13.61;100.00
2685;BME280;1352;48.446;9.156;2022-10-20T05:13:09;95370.44;;;13.72;100.00
2685;BME280;1352;48.446;9.156;2022-10-20T05:15:36;95360.31;;;13.77;100.00
2685;BME280;1352;48.446;9.156;2022-10-20T05:18:03;95359.66;;;13.75;100.00
2685;BME280;1352;48.446;9.156;2022-10-20T05:20:30;95356.50;;;13.72;100.00
2685;BME280;1352;48.446;9.156;2022-10-20T05:22:57;95345.22;;;13.79;100.00
2685;BME280;1352;48.446;9.156;2022-10-20T05:25:25;95333.16;;;13.87;100.00
2685;BME280;1352;48.446;9.156;2022-10-20T05:27:52;95320.25;;;13.93;100.00
2685;BME280;1352;48.446;9.156;2022-10-20T05:30:22;95321.41;;;13.99;100.00
2685;BME280;1352;48.446;9.156;2022-10-20T05:32:49;95312.53;;;13.92;100.00
2685;BME280;1352;48.446;9.156;2022-10-20T05:35:16;95322.03;;;13.93;100.00
2685;BME280;1352;48.446;9.156;2022-10-20T05:37:46;95318.91;;;13.89;100.00
2685;BME280;1352;48.446;9.156;2022-10-20T05:40:13;95325.94;;;13.89;100.00
2685;BME280;1352;48.446;9.156;2022-10-20T05:42:41;95328.59;;;13.97;100.00
2685;BME280;1352;48.446;9.156;2022-10-20T05:45:08;95319.97;;;14.04;100.00
2685;BME280;1352;48.446;9.156;2022-10-20T05:47:38;95325.84;;;13.98;100.00
2685;BME280;1352;48.446;9.156;2022-10-20T05:50:08;95318.91;;;13.89;100.00
2685;BME280;1352;48.446;9.156;2022-10-20T05:52:36;95316.31;;;13.97;100.00
2685;BME280;1352;48.446;9.156;2022-10-20T05:55:04;95325.53;;;14.01;100.00
2685;BME280;1352;48.446;9.156;2022-10-20T05:57:31;95322.22;;;13.99;100.00
2685;BME280;1352;48.446;9.156;2022-10-20T05:59:59;95318.22;;;13.87;100.00
2685;BME280;1352;48.446;9.156;2022-10-20T06:02:26;95318.31;;;13.95;100.00
2685;BME280;1352;48.446;9.156;2022-10-20T06:04:56;95319.97;;;14.04;100.00
2685;BME280;1352;48.446;9.156;2022-10-20T06:07:23;95324.28;;;13.88;100.00
2685;BME280;1352;48.446;9.156;2022-10-20T06:09:50;95324.03;;;13.99;100.00
2685;BME280;1352;48.446;9.156;2022-10-20T06:12:17;95320.44;;;14.00;100.00
2685;BME280;1352;48.446;9.156;2022-10-20T06:14:44;95324.66;;;13.93;100.00
2685;BME280;1352;48.446;9.156;2022-10-20T06:17:12;95333.91;;;13.79;100.00
2685;BME280;1352;48.446;9.156;2022-10-20T06:19:39;95342.41;;;13.99;100.00
2685;BME280;1352;48.446;9.156;2022-10-20T06:22:06;95343.38;;;13.98;100.00
2685;BME280;1352;48.446;9.156;2022-10-20T06:24:33;95337.38;;;14.05;100.00
2685;BME280;1352;48.446;9.156;2022-10-20T06:27:00;95332.56;;;14.01;100.00
2685;BME280;1352;48.446;9.156;2022-10-20T06:29:27;95336.06;;;14.09;100.00
2685;BME280;1352;48.446;9.156;2022-10-20T06:31:54;95347.50;;;14.00;100.00
2685;BME280;1352;48.446;9.156;2022-10-20T06:34:24;95341.78;;;14.05;100.00
2685;BME280;1352;48.446;9.156;2022-10-20T06:36:51;95346.81;;;13.98;100.00
2685;BME280;1352;48.446;9.156;2022-10-20T06:39:19;95353.47;;;14.19;100.00
2685;BME280;1352;48.446;9.156;2022-10-20T06:41:47;95365.50;;;14.29;100.00
2685;BME280;1352;48.446;9.156;2022-10-20T06:44:15;95367.00;;;14.32;100.00
2685;BME280;1352;48.446;9.156;2022-10-20T06:46:42;95368.81;;;14.31;100.00
2685;BME280;1352;48.446;9.156;2022-10-20T06:49:10;95371.44;;;14.31;100.00
2685;BME280;1352;48.446;9.156;2022-10-20T06:51:39;95375.50;;;14.26;100.00
2685;BME280;1352;48.446;9.156;2022-10-20T06:54:06;95375.16;;;14.21;100.00
2685;BME280;1352;48.446;9.156;2022-10-20T06:56:35;95376.28;;;14.18;100.00
2685;BME280;1352;48.446;9.156;2022-10-20T06:59:05;95382.16;;;14.12;100.00
2685;BME280;1352;48.446;9.156;2022-10-20T07:01:33;95373.75;;;14.08;100.00
2685;BME280;1352;48.446;9.156;2022-10-20T07:04:03;95373.81;;;14.16;100.00
2685;BME280;1352;48.446;9.156;2022-10-20T07:06:32;95357.47;;;14.23;100.00
2685;BME280;1352;48.446;9.156;2022-10-20T07:09:03;95356.81;;;14.29;100.00
2685;BME280;1352;48.446;9.156;2022-10-20T07:11:31;95352.00;;;14.42;100.00
2685;BME280;1352;48.446;9.156;2022-10-20T07:13:59;95366.59;;;14.44;100.00
2685;BME280;1352;48.446;9.156;2022-10-20T07:16:28;95373.84;;;14.50;100.00
2685;BME280;1352;48.446;9.156;2022-10-20T07:18:55;95371.56;;;14.64;100.00
2685;BME280;1352;48.446;9.156;2022-10-20T07:21:24;95368.34;;;14.70;100.00
2685;BME280;1352;48.446;9.156;2022-10-20T07:23:53;95363.78;;;14.80;100.00
2685;BME280;1352;48.446;9.156;2022-10-20T07:26:24;95364.53;;;14.72;100.00
2685;BME280;1352;48.446;9.156;2022-10-20T07:28:53;95358.38;;;14.81;100.00
2685;BME280;1352;48.446;9.156;2022-10-20T07:31:22;95354.41;;;14.77;100.00
2685;BME280;1352;48.446;9.156;2022-10-20T07:33:50;95350.44;;;14.73;100.00
2685;BME280;1352;48.446;9.156;2022-10-20T07:36:20;95343.38;;;14.74;100.00
2685;BME280;1352;48.446;9.156;2022-10-20T07:38:49;95344.84;;;14.68;100.00
2685;BME280;1352;48.446;9.156;2022-10-20T07:41:16;95336.00;;;14.69;100.00
2685;BME280;1352;48.446;9.156;2022-10-20T07:43:45;95331.44;;;14.87;100.00
2685;BME280;1352;48.446;9.156;2022-10-20T07:46:12;95333.25;;;15.03;100.00
2685;BME280;1352;48.446;9.156;2022-10-20T07:48:40;95334.59;;;15.15;100.00
2685;BME280;1352;48.446;9.156;2022-10-20T07:51:15;95339.19;;;15.21;100.00
2685;BME280;1352;48.446;9.156;2022-10-20T07:53:43;95342.16;;;15.35;100.00
2685;BME280;1352;48.446;9.156;2022-10-20T07:56:11;95340.19;;;15.37;100.00
2685;BME280;1352;48.446;9.156;2022-10-20T07:58:38;95344.31;;;15.55;100.00
2685;BME280;1352;48.446;9.156;2022-10-20T08:01:07;95345.97;;;15.56;100.00
2685;BME280;1352;48.446;9.156;2022-10-20T08:03:34;95343.81;;;15.68;100.00
2685;BME280;1352;48.446;9.156;2022-10-20T08:06:02;95351.69;;;15.84;100.00
2685;BME280;1352;48.446;9.156;2022-10-20T08:08:29;95348.19;;;16.00;100.00
2685;BME280;1352;48.446;9.156;2022-10-20T08:10:56;95336.63;;;16.17;100.00
2685;BME280;1352;48.446;9.156;2022-10-20T08:13:24;95348.28;;;16.31;100.00
2685;BME280;1352;48.446;9.156;2022-10-20T08:15:51;95344.63;;;16.40;100.00
2685;BME280;1352;48.446;9.156;2022-10-20T08:18:20;95334.00;;;16.56;100.00
2685;BME280;1352;48.446;9.156;2022-10-20T08:20:47;95334.84;;;16.57;100.00
2685;BME280;1352;48.446;9.156;2022-10-20T08:23:14;95336.47;;;16.66;98.59
2685;BME280;1352;48.446;9.156;2022-10-20T08:25:41;95334.06;;;16.87;100.00
2685;BME280;1352;48.446;9.156;2022-10-20T08:28:09;95335.66;;;16.96;100.00
2685;BME280;1352;48.446;9.156;2022-10-20T08:30:36;95330.75;;;17.16;100.00
2685;BME280;1352;48.446;9.156;2022-10-20T08:33:03;95320.31;;;17.23;94.29
2685;BME280;1352;48.446;9.156;2022-10-20T08:35:31;95316.38;;;17.19;94.90
2685;BME280;1352;48.446;9.156;2022-10-20T08:37:58;95326.91;;;17.41;94.18
2685;BME280;1352;48.446;9.156;2022-10-20T08:40:28;95330.94;;;17.52;94.03
2685;BME280;1352;48.446;9.156;2022-10-20T08:42:56;95335.75;;;17.71;92.22
2685;BME280;1352;48.446;9.156;2022-10-20T08:45:25;95339.88;;;17.74;86.90
2685;BME280;1352;48.446;9.156;2022-10-20T08:47:55;95340.22;;;17.71;85.33
2685;BME280;1352;48.446;9.156;2022-10-20T08:50:23;95341.84;;;17.72;88.96
2685;BME280;1352;48.446;9.156;2022-10-20T08:52:57;95339.44;;;18.00;89.57
2685;BME280;1352;48.446;9.156;2022-10-20T08:55:27;95347.09;;;18.24;86.28
2685;BME280;1352;48.446;9.156;2022-10-20T08:57:59;95356.28;;;18.43;86.75
2685;BME280;1352;48.446;9.156;2022-10-20T09:00:28;95354.19;;;18.53;85.45
2685;BME280;1352;48.446;9.156;2022-10-20T09:02:59;95352.00;;;18.71;88.50
2685;BME280;1352;48.446;9.156;2022-10-20T09:05:30;95352.72;;;18.94;88.73
2685;BME280;1352;48.446;9.156;2022-10-20T09:07:59;95330.94;;;19.14;87.89
2685;BME280;1352;48.446;9.156;2022-10-20T09:10:32;95343.56;;;19.33;82.67
2685;BME280;1352;48.446;9.156;2022-10-20T09:13:02;95356.97;;;19.31;85.73
2685;BME280;1352;48.446;9.156;2022-10-20T09:15:32;95360.50;;;19.39;85.72
2685;BME280;1352;48.446;9.156;2022-10-20T09:18:02;95360.69;;;19.37;84.99
2685;BME280;1352;48.446;9.156;2022-10-20T09:20:34;95344.72;;;19.09;81.79
2685;BME280;1352;48.446;9.156;2022-10-20T09:23:04;95352.66;;;18.73;86.49
2685;BME280;1352;48.446;9.156;2022-10-20T09:25:32;95360.38;;;18.31;91.61
2685;BME280;1352;48.446;9.156;2022-10-20T09:28:00;95371.94;;;18.00;99.89
2685;BME280;1352;48.446;9.156;2022-10-20T09:30:32;95373.06;;;17.68;98.88
2685;BME280;1352;48.446;9.156;2022-10-20T09:33:00;95376.63;;;17.53;100.00
2685;BME280;1352;48.446;9.156;2022-10-20T09:35:46;95378.38;;;17.37;100.00
2685;BME280;1352;48.446;9.156;2022-10-20T09:38:18;95380.06;;;17.30;100.00
2685;BME280;1352;48.446;9.156;2022-10-20T09:40:56;95399.03;;;17.03;100.00
2685;BME280;1352;48.446;9.156;2022-10-20T09:43:24;95399.03;;;17.03;100.00
2685;BME280;1352;48.446;9.156;2022-10-20T09:45:54;95390.84;;;16.90;100.00
2685;BME280;1352;48.446;9.156;2022-10-20T09:48:24;95407.53;;;17.13;100.00
2685;BME280;1352;48.446;9.156;2022-10-20T09:50:54;95405.63;;;17.30;100.00
2685;BME280;1352;48.446;9.156;2022-10-20T09:53:26;95406.75;;;17.35;100.00
2685;BME280;1352;48.446;9.156;2022-10-20T09:55:54;95404.16;;;17.50;100.00
2685;BME280;1352;48.446;9.156;2022-10-20T09:58:25;95404.59;;;17.62;100.00
2685;BME280;1352;48.446;9.156;2022-10-20T10:00:58;95400.59;;;17.66;100.00
2685;BME280;1352;48.446;9.156;2022-10-20T10:03:27;95400.16;;;17.62;100.00
2685;BME280;1352;48.446;9.156;2022-10-20T10:05:55;95403.72;;;17.69;100.00
2685;BME280;1352;48.446;9.156;2022-10-20T10:08:27;95395.84;;;17.61;100.00
2685;BME280;1352;48.446;9.156;2022-10-20T10:11:00;95401.59;;;17.42;100.00
2685;BME280;1352;48.446;9.156;2022-10-20T10:13:29;95407.91;;;17.33;100.00
2685;BME280;1352;48.446;9.156;2022-10-20T10:16:06;95414.06;;;17.25;100.00
2685;BME280;1352;48.446;9.156;2022-10-20T10:18:34;95411.25;;;17.27;100.00
2685;BME280;1352;48.446;9.156;2022-10-20T10:21:03;95416.94;;;17.16;100.00
2685;BME280;1352;48.446;9.156;2022-10-20T10:23:34;95420.34;;;17.24;100.00
2685;BME280;1352;48.446;9.156;2022-10-20T10:26:33;95419.94;;;17.04;100.00
2685;BME280;1352;48.446;9.156;2022-10-20T10:29:01;95418.09;;;17.13;100.00
2685;BME280;1352;48.446;9.156;2022-10-20T10:31:28;95420.34;;;17.47;100.00
2685;BME280;1352;48.446;9.156;2022-10-20T10:34:21;95402.38;;;17.73;100.00
2685;BME280;1352;48.446;9.156;2022-10-20T10:36:50;95408.75;;;18.02;100.00
2685;BME280;1352;48.446;9.156;2022-10-20T10:39:19;95400.31;;;18.21;100.00
2685;BME280;1352;48.446;9.156;2022-10-20T10:41:55;95391.38;;;18.37;100.00
2685;BME280;1352;48.446;9.156;2022-10-20T10:44:35;95399.13;;;18.53;100.00
2685;BME280;1352;48.446;9.156;2022-10-20T10:47:19;95391.75;;;18.63;100.00
2685;BME280;1352;48.446;9.156;2022-10-20T10:49:56;95392.78;;;18.77;100.00
2685;BME280;1352;48.446;9.156;2022-10-20T10:52:35;95393.66;;;18.84;100.00
2685;BME280;1352;48.446;9.156;2022-10-20T10:55:16;95381.44;;;18.83;100.00
2685;BME280;1352;48.446;9.156;2022-10-20T10:57:56;95369.28;;;18.88;100.00
2685;BME280;1352;48.446;9.156;2022-10-20T11:00:37;95359.81;;;18.94;100.00
2685;BME280;1352;48.446;9.156;2022-10-20T11:03:24;95358.00;;;18.94;100.00
2685;BME280;1352;48.446;9.156;2022-10-20T11:06:05;95360.34;;;19.04;100.00
2685;BME280;1352;48.446;9.156;2022-10-20T11:08:51;95353.66;;;19.08;100.00
2685;BME280;1352;48.446;9.156;2022-10-20T11:11:33;95351.00;;;19.08;100.00
2685;BME280;1352;48.446;9.156;2022-10-20T11:14:25;95351.28;;;19.13;100.00
2685;BME280;1352;48.446;9.156;2022-10-20T11:17:08;95356.63;;;19.20;100.00
2685;BME280;1352;48.446;9.156;2022-10-20T11:20:05;95356.09;;;19.24;100.00
2685;BME280;1352;48.446;9.156;2022-10-20T11:22:41;95357.59;;;19.33;100.00
2685;BME280;1352;48.446;9.156;2022-10-20T11:25:15;95363.13;;;19.39;99.62
2685;BME280;1352;48.446;9.156;2022-10-20T11:27:50;95359.53;;;19.46;97.64
2685;BME280;1352;48.446;9.156;2022-10-20T11:30:18;95356.44;;;19.57;95.74
2685;BME280;1352;48.446;9.156;2022-10-20T11:32:51;95352.00;;;19.64;98.70
2685;BME280;1352;48.446;9.156;2022-10-20T11:35:28;95353.81;;;19.64;97.32
2685;BME280;1352;48.446;9.156;2022-10-20T11:38:11;95348.16;;;19.67;97.97
2685;BME280;1352;48.446;9.156;2022-10-20T11:40:40;95340.53;;;19.79;97.99
2685;BME280;1352;48.446;9.156;2022-10-20T11:43:16;95337.09;;;19.85;96.38
2685;BME280;1352;48.446;9.156;2022-10-20T11:45:49;95342.03;;;19.88;94.92
2685;BME280;1352;48.446;9.156;2022-10-20T11:48:23;95336.91;;;19.86;94.51
2685;BME280;1352;48.446;9.156;2022-10-20T11:51:04;95334.44;;;19.85;94.94
2685;BME280;1352;48.446;9.156;2022-10-20T11:56:44;95301.09;;;19.62;98.42
2685;BME280;1352;48.446;9.156;2022-10-20T11:59:38;95298.81;;;19.59;96.50
2685;BME280;1352;48.446;9.156;2022-10-20T12:02:22;95318.41;;;19.65;96.48
2685;BME280;1352;48.446;9.156;2022-10-20T12:05:17;95314.56;;;19.67;96.37
2685;BME280;1352;48.446;9.156;2022-10-20T12:08:01;95292.19;;;19.70;97.21
2685;BME280;1352;48.446;9.156;2022-10-20T12:10:40;95276.78;;;19.80;97.53
2685;BME280;1352;48.446;9.156;2022-10-20T12:13:21;95265.78;;;19.83;95.35
2685;BME280;1352;48.446;9.156;2022-10-20T12:15:53;95271.75;;;19.92;96.68
2685;BME280;1352;48.446;9.156;2022-10-20T12:18:24;95299.06;;;19.92;95.59
2685;BME280;1352;48.446;9.156;2022-10-20T12:20:57;95281.63;;;20.04;94.19
2685;BME280;1352;48.446;9.156;2022-10-20T12:23:53;95265.28;;;20.01;93.76
2685;BME280;1352;48.446;9.156;2022-10-20T12:32:54;95276.84;;;19.93;95.65
2685;BME280;1352;48.446;9.156;2022-10-20T12:38:16;95284.66;;;20.01;97.06
2685;BME280;1352;48.446;9.156;2022-10-20T12:40:48;95270.00;;;20.05;97.01
2685;BME280;1352;48.446;9.156;2022-10-20T12:43:45;95272.00;;;19.97;96.71
2685;BME280;1352;48.446;9.156;2022-10-20T12:46:18;95276.47;;;19.96;97.31
2685;BME280;1352;48.446;9.156;2022-10-20T12:48:50;95267.19;;;20.07;97.79
2685;BME280;1352;48.446;9.156;2022-10-20T12:51:37;95267.19;;;20.07;96.80
2685;BME280;1352;48.446;9.156;2022-10-20T12:54:17;95275.69;;;20.02;95.74
2685;BME280;1352;48.446;9.156;2022-10-20T12:56:46;95262.16;;;20.19;97.02
2685;BME280;1352;48.446;9.156;2022-10-20T12:59:36;95256.16;;;20.10;96.46
2685;BME280;1352;48.446;9.156;2022-10-20T13:02:32;95260.25;;;20.13;97.64
2685;BME280;1352;48.446;9.156;2022-10-20T13:05:46;95253.94;;;20.14;99.00
2685;BME280;1352;48.446;9.156;2022-10-20T13:08:22;95245.66;;;20.23;97.06
2685;BME280;1352;48.446;9.156;2022-10-20T13:10:49;95241.00;;;20.32;98.76
2685;BME280;1352;48.446;9.156;2022-10-20T13:13:54;95243.00;;;20.23;98.26
2685;BME280;1352;48.446;9.156;2022-10-20T13:16:23;95250.16;;;20.29;96.96
2685;BME280;1352;48.446;9.156;2022-10-20T13:18:53;95250.69;;;20.46;95.23
2685;BME280;1352;48.446;9.156;2022-10-20T13:21:27;95237.22;;;20.48;96.67
2685;BME280;1352;48.446;9.156;2022-10-20T13:24:01;95236.44;;;20.54;95.41
2685;BME280;1352;48.446;9.156;2022-10-20T13:26:31;95238.28;;;20.60;95.44
2685;BME280;1352;48.446;9.156;2022-10-20T13:29:10;95241.75;;;20.60;94.13
2685;BME280;1352;48.446;9.156;2022-10-20T13:31:44;95251.34;;;20.61;94.12
2685;BME280;1352;48.446;9.156;2022-10-20T13:34:17;95264.41;;;20.63;93.10
2685;BME280;1352;48.446;9.156;2022-10-20T13:37:02;95272.97;;;20.65;93.07
2685;BME280;1352;48.446;9.156;2022-10-20T13:39:40;95247.88;;;20.67;86.54
2685;BME280;1352;48.446;9.156;2022-10-20T13:42:23;95271.16;;;20.31;92.46
2685;BME280;1352;48.446;9.156;2022-10-20T13:44:59;95270.88;;;20.47;87.75
2685;BME280;1352;48.446;9.156;2022-10-20T13:47:41;95266.88;;;20.30;86.71